Time;durP1;ratioP1;P1;durP2;ratioP2;P2;SDS_P1;SDS_P2;PMS_P1;PMS_P2;Temp;Humidity;BMP_temperature;BMP_pressure;BME280_temperature;BME280_humidity;BME280_pressure;Samples;Min_cycle;Max_cycle;Signal;HPM_P1;HPM_P2
2023/01/24 00:00:11;;;;;;;17.50;12.67;;;4.90;99.90;;;;;;5042353;28;20247;-60
2023/01/24 00:02:37;;;;;;;14.55;11.73;;;5.10;99.90;;;;;;5044929;28;20266;-59
2023/01/24 00:05:04;;;;;;;14.48;11.13;;;4.80;99.90;;;;;;5046599;28;20673;-59
2023/01/24 00:07:30;;;;;;;13.57;10.88;;;5.00;99.90;;;;;;5045353;28;20697;-59
2023/01/24 00:09:56;;;;;;;19.30;12.90;;;5.20;99.90;;;;;;5040647;28;20200;-59
2023/01/24 00:12:21;;;;;;;18.70;13.43;;;4.90;99.90;;;;;;5050584;28;20440;-59
2023/01/24 00:14:47;;;;;;;18.20;12.60;;;5.00;99.90;;;;;;5049697;28;20194;-60
2023/01/24 00:17:13;;;;;;;16.57;12.80;;;4.90;99.90;;;;;;5045571;28;20591;-59
2023/01/24 00:19:39;;;;;;;19.87;12.53;;;5.00;99.90;;;;;;5048310;28;20434;-60
2023/01/24 00:22:06;;;;;;;15.23;11.23;;;4.90;99.90;;;;;;5049653;28;20196;-59
2023/01/24 00:24:34;;;;;;;17.20;12.65;;;4.90;99.90;;;;;;5047138;28;20676;-60
2023/01/24 00:27:00;;;;;;;16.50;12.75;;;5.60;99.90;;;;;;5049900;28;20201;-60
2023/01/24 00:29:26;;;;;;;14.57;12.20;;;5.00;99.90;;;;;;5048247;28;20261;-60
2023/01/24 00:31:51;;;;;;;15.23;12.10;;;5.20;99.90;;;;;;5049435;28;20649;-59
2023/01/24 00:34:17;;;;;;;16.77;11.83;;;5.20;99.90;;;;;;5043738;28;20215;-59
2023/01/24 00:36:42;;;;;;;15.17;10.93;;;5.10;99.90;;;;;;5048423;28;20238;-59
2023/01/24 00:39:10;;;;;;;17.37;12.57;;;4.70;99.90;;;;;;5042960;28;20187;-60
2023/01/24 00:41:36;;;;;;;14.43;11.63;;;4.60;99.90;;;;;;5045983;28;20185;-59
2023/01/24 00:44:01;;;;;;;18.77;11.27;;;5.20;99.90;;;;;;5043926;28;20672;-59
2023/01/24 00:46:27;;;;;;;16.10;12.23;;;5.20;99.90;;;;;;5046886;28;20213;-60
2023/01/24 00:48:52;;;;;;;18.13;12.40;;;5.20;99.90;;;;;;5044155;28;20422;-59
2023/01/24 00:51:18;;;;;;;15.37;11.53;;;5.10;99.90;;;;;;5045528;28;20258;-59
2023/01/24 00:53:43;;;;;;;15.80;11.90;;;5.50;99.90;;;;;;5040749;28;20198;-59
2023/01/24 00:56:09;;;;;;;17.23;11.67;;;5.10;99.90;;;;;;5043665;28;20227;-59
2023/01/24 00:58:34;;;;;;;15.77;11.03;;;5.10;99.90;;;;;;5045505;28;20219;-60
2023/01/24 01:01:03;;;;;;;15.43;11.30;;;5.10;99.90;;;;;;5045319;28;20200;-60
2023/01/24 01:03:29;;;;;;;13.73;11.23;;;4.60;99.90;;;;;;5040607;28;20206;-59
2023/01/24 01:06:04;;;;;;;13.25;10.30;;;5.00;99.90;;;;;;5040342;28;20205;-60
2023/01/24 01:08:30;;;;;;;12.15;10.07;;;5.30;99.90;;;;;;5045336;28;20183;-59
2023/01/24 01:10:56;;;;;;;12.75;9.60;;;5.20;99.90;;;;;;5043153;28;20215;-60
2023/01/24 01:13:22;;;;;;;12.23;10.63;;;4.50;99.90;;;;;;5042715;28;20218;-59
2023/01/24 01:15:47;;;;;;;13.57;9.87;;;5.00;99.90;;;;;;5045284;28;20253;-60
2023/01/24 01:18:13;;;;;;;13.00;11.17;;;5.00;99.90;;;;;;5046975;28;20528;-59
2023/01/24 01:20:39;;;;;;;14.00;10.40;;;4.80;99.90;;;;;;5048015;28;20189;-59
2023/01/24 01:23:04;;;;;;;13.90;11.50;;;4.70;99.90;;;;;;5046782;28;20190;-60
2023/01/24 01:25:30;;;;;;;12.80;10.80;;;4.80;99.90;;;;;;5049250;28;20735;-59
2023/01/24 01:27:56;;;;;;;13.88;11.35;;;4.80;99.90;;;;;;5049287;28;20190;-59
2023/01/24 01:30:21;;;;;;;16.90;11.67;;;4.40;99.90;;;;;;5053659;28;20859;-60
2023/01/24 01:32:47;;;;;;;16.63;11.93;;;4.80;99.90;;;;;;5049393;28;20174;-60
2023/01/24 01:35:13;;;;;;;13.13;10.30;;;4.90;99.90;;;;;;5050757;28;20744;-60
2023/01/24 01:37:38;;;;;;;13.77;10.77;;;4.90;99.90;;;;;;5046327;28;20273;-60
2023/01/24 01:40:06;;;;;;;13.50;10.63;;;5.20;99.90;;;;;;5047627;28;20639;-59
2023/01/24 01:42:46;;;;;;;12.27;10.00;;;4.90;99.90;;;;;;5043031;28;20250;-59
2023/01/24 01:45:39;;;;;;;12.90;10.32;;;5.00;99.90;;;;;;5045705;28;20202;-60
2023/01/24 01:48:15;;;;;;;12.63;10.15;;;4.80;99.90;;;;;;5043918;28;20215;-60
2023/01/24 01:50:46;;;;;;;14.75;11.15;;;4.80;99.90;;;;;;5041629;28;20272;-60
2023/01/24 01:53:13;;;;;;;13.50;11.02;;;4.50;99.90;;;;;;5041938;28;20192;-60
2023/01/24 01:55:43;;;;;;;15.57;10.98;;;4.90;99.90;;;;;;5043007;28;20211;-60
2023/01/24 01:58:09;;;;;;;15.68;11.25;;;4.30;99.90;;;;;;5042515;28;20183;-61
2023/01/24 02:00:34;;;;;;;11.57;9.70;;;5.10;99.90;;;;;;5043196;28;20190;-60
2023/01/24 02:05:53;;;;;;;14.18;11.13;;;4.80;99.90;;;;;;5042014;28;20211;-60
2023/01/24 02:08:22;;;;;;;14.77;11.60;;;4.80;99.90;;;;;;5046004;28;20184;-60
2023/01/24 02:13:35;;;;;;;14.90;10.90;;;5.00;99.90;;;;;;5050372;28;20235;-61
2023/01/24 02:16:03;;;;;;;14.70;11.82;;;5.00;99.90;;;;;;5050438;28;20207;-60
2023/01/24 02:18:34;;;;;;;15.65;12.20;;;5.20;99.90;;;;;;5044189;28;20332;-60
2023/01/24 02:21:00;;;;;;;17.13;12.63;;;4.70;99.90;;;;;;5045879;28;20197;-61
2023/01/24 02:23:56;;;;;;;13.00;9.90;;;5.10;99.90;;;;;;5047595;28;20640;-60
2023/01/24 02:26:24;;;;;;;16.48;11.68;;;5.00;99.90;;;;;;5038962;28;20203;-60
2023/01/24 02:29:04;;;;;;;14.48;10.68;;;5.00;99.90;;;;;;5047306;28;20506;-60
2023/01/24 02:31:30;;;;;;;16.88;12.13;;;4.70;99.90;;;;;;5050027;28;20221;-61
2023/01/24 02:33:55;;;;;;;14.87;11.50;;;4.30;99.90;;;;;;5045191;28;20219;-61
2023/01/24 02:36:50;;;;;;;13.60;10.90;;;5.20;99.90;;;;;;5048979;28;20321;-61
2023/01/24 02:39:19;;;;;;;16.10;11.45;;;4.90;99.90;;;;;;5041168;28;20230;-60
2023/01/24 02:41:49;;;;;;;14.07;10.77;;;4.90;99.90;;;;;;5041181;28;20191;-60
2023/01/24 02:44:23;;;;;;;14.68;11.57;;;4.80;99.90;;;;;;5042365;28;20194;-60
2023/01/24 02:46:49;;;;;;;15.80;11.32;;;5.10;99.90;;;;;;5041070;28;20593;-60
2023/01/24 02:49:14;;;;;;;14.07;11.00;;;5.00;99.90;;;;;;5036838;28;20233;-60
2023/01/24 02:54:39;;;;;;;15.85;11.40;;;5.00;99.90;;;;;;5028223;28;20198;-61
2023/01/24 02:59:49;;;;;;;15.95;10.88;;;5.40;99.90;;;;;;5039589;28;20221;-60
2023/01/24 03:02:14;;;;;;;15.07;10.80;;;4.90;99.90;;;;;;5040106;28;20214;-60
2023/01/24 03:04:40;;;;;;;14.37;11.10;;;4.70;99.90;;;;;;5041377;28;20185;-60
2023/01/24 03:07:05;;;;;;;16.60;11.23;;;5.00;99.90;;;;;;5039419;28;20294;-60
2023/01/24 03:09:34;;;;;;;15.50;10.90;;;5.00;99.90;;;;;;5037522;28;20188;-60
2023/01/24 03:36:42;;;;;;;15.30;10.35;;;4.90;99.90;;;;;;5041636;28;20225;-61
2023/01/24 03:41:54;;;;;;;13.23;10.73;;;4.90;99.90;;;;;;5043029;28;20445;-60
2023/01/24 03:44:20;;;;;;;15.70;11.40;;;4.90;99.90;;;;;;5040335;28;20190;-60
2023/01/24 03:46:45;;;;;;;13.97;10.97;;;5.10;99.90;;;;;;5043479;28;20657;-60
2023/01/24 03:49:11;;;;;;;14.30;10.63;;;4.80;99.90;;;;;;5043710;28;20194;-60
2023/01/24 03:54:21;;;;;;;17.42;12.15;;;5.10;99.90;;;;;;5043608;28;20213;-60
2023/01/24 03:56:47;;;;;;;14.77;11.50;;;4.90;99.90;;;;;;5038304;28;20679;-60
2023/01/24 03:59:13;;;;;;;13.45;10.90;;;5.20;99.90;;;;;;5047295;28;20192;-60
2023/01/24 04:01:38;;;;;;;15.40;12.33;;;5.00;99.90;;;;;;5043728;28;20189;-60
2023/01/24 04:04:04;;;;;;;15.83;13.00;;;5.00;99.90;;;;;;5040354;28;20641;-60
2023/01/24 04:06:29;;;;;;;14.87;11.33;;;5.10;99.90;;;;;;5048552;28;20236;-60
2023/01/24 04:08:55;;;;;;;14.17;11.50;;;5.10;99.90;;;;;;5048954;28;20184;-60
2023/01/24 04:11:21;;;;;;;13.97;10.90;;;4.80;99.90;;;;;;5040125;28;20188;-60
2023/01/24 04:13:46;;;;;;;16.97;11.87;;;5.20;99.90;;;;;;5046489;28;20682;-60
2023/01/24 04:16:12;;;;;;;14.93;12.03;;;5.60;99.90;;;;;;5049536;28;20222;-60
2023/01/24 04:18:38;;;;;;;15.23;11.88;;;4.80;99.90;;;;;;5036739;28;20703;-60
2023/01/24 04:21:04;;;;;;;18.30;11.93;;;5.10;99.90;;;;;;5047598;28;20201;-59
2023/01/24 04:23:30;;;;;;;16.50;12.70;;;5.10;99.90;;;;;;5046066;28;20271;-60
2023/01/24 04:25:58;;;;;;;13.50;11.10;;;4.90;99.90;;;;;;5050916;28;20630;-60
2023/01/24 04:28:24;;;;;;;14.80;11.07;;;5.00;99.90;;;;;;5049973;28;20577;-60
2023/01/24 04:30:56;;;;;;;16.70;11.60;;;5.10;99.90;;;;;;5053466;28;20266;-60
2023/01/24 04:33:21;;;;;;;17.90;12.05;;;5.00;99.90;;;;;;5053815;28;20833;-60
2023/01/24 04:35:47;;;;;;;14.70;10.27;;;4.30;99.90;;;;;;5048873;28;20217;-60
2023/01/24 04:38:12;;;;;;;14.67;11.03;;;4.70;99.90;;;;;;5053010;28;20212;-60
2023/01/24 04:40:40;;;;;;;14.83;10.80;;;5.00;99.90;;;;;;5051999;28;20237;-60
2023/01/24 04:43:05;;;;;;;16.73;12.40;;;4.60;99.90;;;;;;5047729;28;20183;-60
2023/01/24 04:45:31;;;;;;;16.30;11.43;;;4.10;99.90;;;;;;5047843;28;20690;-60
2023/01/24 04:47:57;;;;;;;19.70;12.57;;;4.70;99.90;;;;;;5043242;28;20574;-60
2023/01/24 04:50:22;;;;;;;18.37;12.50;;;4.80;99.90;;;;;;5047597;28;20184;-60
2023/01/24 04:52:48;;;;;;;14.50;11.37;;;4.80;99.90;;;;;;5044460;28;20188;-60
2023/01/24 04:55:13;;;;;;;14.20;11.10;;;4.40;99.90;;;;;;5044077;28;20714;-60
2023/01/24 04:57:39;;;;;;;17.90;12.83;;;4.80;99.90;;;;;;5045154;28;20215;-60
2023/01/24 05:00:07;;;;;;;13.47;11.00;;;4.70;99.90;;;;;;5046404;28;20269;-60
2023/01/24 05:02:33;;;;;;;13.10;10.63;;;4.80;99.90;;;;;;5046563;28;20214;-59
2023/01/24 05:04:58;;;;;;;16.60;11.73;;;4.70;99.90;;;;;;5047638;28;20211;-59
2023/01/24 05:07:24;;;;;;;16.10;12.07;;;4.10;99.90;;;;;;5048768;28;20194;-60
2023/01/24 05:09:49;;;;;;;16.33;11.70;;;4.80;99.90;;;;;;5043508;28;20257;-60
2023/01/24 05:12:15;;;;;;;14.57;11.47;;;4.70;99.90;;;;;;5049142;28;20707;-60
2023/01/24 05:14:40;;;;;;;17.83;13.30;;;5.00;99.90;;;;;;5039850;28;20196;-60
2023/01/24 05:17:06;;;;;;;14.93;10.87;;;4.70;99.90;;;;;;5047393;28;20222;-60
2023/01/24 05:19:32;;;;;;;16.20;12.20;;;4.90;99.90;;;;;;5042989;28;20723;-60
2023/01/24 05:21:57;;;;;;;14.27;10.03;;;4.20;99.90;;;;;;5049516;28;20178;-60
2023/01/24 05:24:23;;;;;;;17.07;12.93;;;4.60;99.90;;;;;;5046411;28;20187;-60
2023/01/24 05:26:48;;;;;;;16.20;12.10;;;4.80;99.90;;;;;;5042901;28;20658;-60
2023/01/24 05:29:14;;;;;;;18.20;12.50;;;4.70;99.90;;;;;;5040212;28;20248;-59
2023/01/24 05:31:40;;;;;;;14.10;10.80;;;4.80;99.90;;;;;;5044031;28;20281;-59
2023/01/24 05:34:05;;;;;;;18.57;12.80;;;4.50;99.90;;;;;;5038098;28;20202;-58
2023/01/24 05:36:31;;;;;;;17.23;12.70;;;4.60;99.90;;;;;;5050609;28;20219;-57
2023/01/24 05:38:57;;;;;;;15.20;11.93;;;4.70;99.90;;;;;;5045773;28;20239;-57
2023/01/24 05:41:22;;;;;;;13.53;10.37;;;4.70;99.90;;;;;;5042302;28;20192;-57
2023/01/24 05:43:49;;;;;;;17.20;12.77;;;4.50;99.90;;;;;;5041540;28;20228;-58
2023/01/24 05:46:16;;;;;;;16.83;11.55;;;4.00;99.90;;;;;;5045634;28;20562;-57
2023/01/24 05:48:43;;;;;;;16.02;12.25;;;4.80;99.90;;;;;;5042096;28;20187;-57
2023/01/24 05:51:11;;;;;;;18.33;12.57;;;4.70;99.90;;;;;;5035275;28;20194;-57
2023/01/24 05:53:39;;;;;;;18.67;14.48;;;4.80;99.90;;;;;;5032784;28;20563;-68
2023/01/24 05:56:09;;;;;;;16.17;12.32;;;4.40;99.90;;;;;;5038321;28;22101;-69
2023/01/24 05:58:37;;;;;;;16.30;11.85;;;4.50;99.90;;;;;;5041807;28;20191;-62
2023/01/24 06:01:10;;;;;;;15.15;11.63;;;4.50;99.90;;;;;;5044954;28;20282;-62
2023/01/24 06:03:39;;;;;;;19.27;12.90;;;4.60;99.90;;;;;;5042621;28;20199;-62
2023/01/24 06:06:05;;;;;;;15.77;11.30;;;4.60;99.90;;;;;;5041140;28;20206;-62
2023/01/24 06:08:30;;;;;;;16.27;11.40;;;4.70;99.90;;;;;;5046575;28;20183;-63
2023/01/24 06:11:05;;;;;;;14.53;11.43;;;4.20;99.90;;;;;;5043164;28;20969;-63
2023/01/24 06:13:31;;;;;;;16.33;11.40;;;4.50;99.90;;;;;;5044243;28;20186;-63
2023/01/24 06:16:06;;;;;;;14.52;11.38;;;4.80;99.90;;;;;;5042130;28;20246;-63
2023/01/24 06:18:34;;;;;;;16.50;11.95;;;4.80;99.90;;;;;;5040502;28;20186;-62
2023/01/24 06:21:38;;;;;;;17.40;11.98;;;4.60;99.90;;;;;;5039378;28;20725;-62
2023/01/24 06:24:05;;;;;;;15.05;12.02;;;4.80;99.90;;;;;;5041591;28;20618;-62
2023/01/24 06:26:31;;;;;;;16.77;12.50;;;5.00;99.90;;;;;;5046229;28;20344;-63
2023/01/24 06:28:57;;;;;;;18.75;12.43;;;4.80;99.90;;;;;;5040900;28;20199;-63
2023/01/24 06:31:36;;;;;;;16.35;12.52;;;4.70;99.90;;;;;;5047162;28;20201;-63
2023/01/24 06:34:23;;;;;;;13.93;11.80;;;4.80;99.90;;;;;;5041804;28;20179;-63
2023/01/24 06:37:01;;;;;;;19.65;12.85;;;4.60;99.90;;;;;;5040261;28;20214;-64
2023/01/24 06:39:27;;;;;;;19.60;13.27;;;4.60;99.90;;;;;;5043815;28;20196;-64
2023/01/24 06:41:53;;;;;;;17.42;11.73;;;4.90;99.90;;;;;;5043519;28;20275;-63
2023/01/24 06:44:18;;;;;;;18.33;12.63;;;4.60;99.90;;;;;;5046983;28;20279;-62
2023/01/24 06:46:44;;;;;;;20.08;13.35;;;4.90;99.90;;;;;;5045208;28;20485;-63
2023/01/24 06:49:11;;;;;;;18.30;12.80;;;4.80;99.90;;;;;;5047063;28;20182;-63
2023/01/24 06:51:36;;;;;;;19.52;13.63;;;4.80;99.90;;;;;;5045383;28;20193;-63
2023/01/24 06:54:02;;;;;;;17.70;13.87;;;4.80;99.90;;;;;;5049979;28;20652;-63
2023/01/24 06:56:28;;;;;;;18.40;13.27;;;5.00;99.90;;;;;;5047076;28;20211;-63
2023/01/24 06:58:54;;;;;;;19.07;13.80;;;5.30;99.90;;;;;;5044128;28;20192;-62
2023/01/24 07:01:19;;;;;;;20.40;14.43;;;4.80;99.90;;;;;;5044893;28;20270;-63
2023/01/24 07:03:45;;;;;;;21.33;13.83;;;4.30;99.90;;;;;;5042963;28;20257;-62
2023/01/24 07:06:10;;;;;;;17.13;13.67;;;5.00;99.90;;;;;;5048424;28;20264;-62
2023/01/24 07:08:36;;;;;;;20.30;13.47;;;4.50;99.90;;;;;;5046174;28;20200;-63
2023/01/24 07:11:01;;;;;;;19.77;13.43;;;4.20;99.90;;;;;;5045516;28;20328;-62
2023/01/24 07:13:27;;;;;;;21.80;14.00;;;5.20;99.90;;;;;;5045559;28;20271;-62
2023/01/24 07:15:53;;;;;;;19.73;14.40;;;4.40;99.90;;;;;;5047174;28;20704;-63
2023/01/24 07:18:19;;;;;;;20.37;14.30;;;4.70;99.90;;;;;;5045725;28;20191;-63
2023/01/24 07:20:45;;;;;;;20.95;14.65;;;4.80;99.90;;;;;;5043522;28;20525;-63
2023/01/24 07:23:32;;;;;;;19.20;14.70;;;4.70;99.90;;;;;;5044254;28;20548;-63
2023/01/24 07:25:58;;;;;;;18.80;12.95;;;4.70;99.90;;;;;;5042574;28;20299;-63
2023/01/24 07:28:24;;;;;;;19.77;14.35;;;4.70;99.90;;;;;;5047767;28;20683;-63
2023/01/24 07:30:52;;;;;;;21.40;14.40;;;4.60;99.90;;;;;;5046194;28;20184;-65
2023/01/24 07:33:18;;;;;;;16.90;13.40;;;4.90;99.90;;;;;;5046313;28;20333;-63
2023/01/24 07:35:43;;;;;;;18.13;13.50;;;4.80;99.90;;;;;;5047275;28;20877;-61
2023/01/24 07:38:11;;;;;;;23.23;14.23;;;4.70;99.90;;;;;;5046983;28;20678;-63
2023/01/24 07:40:37;;;;;;;20.25;13.90;;;4.50;99.90;;;;;;5039758;28;20538;-63
2023/01/24 07:43:02;;;;;;;20.83;13.83;;;4.60;99.90;;;;;;5047072;28;20200;-64
2023/01/24 07:45:28;;;;;;;21.90;15.40;;;4.50;99.90;;;;;;5044927;28;20460;-63
2023/01/24 07:47:59;;;;;;;18.80;13.13;;;4.50;99.90;;;;;;5046001;28;20217;-64
2023/01/24 07:50:26;;;;;;;18.80;12.93;;;4.20;99.90;;;;;;5043030;28;20481;-63
2023/01/24 07:52:55;;;;;;;18.95;13.00;;;4.60;99.90;;;;;;5042776;28;20578;-64
2023/01/24 07:55:22;;;;;;;21.92;13.88;;;4.90;99.90;;;;;;5041770;28;20211;-61
2023/01/24 07:57:47;;;;;;;19.65;13.93;;;4.90;99.90;;;;;;5042208;28;20246;-64
2023/01/24 08:00:13;;;;;;;15.30;11.87;;;4.90;99.90;;;;;;5047444;28;20228;-63
2023/01/24 08:02:43;;;;;;;16.25;11.95;;;4.80;99.90;;;;;;5047795;28;20219;-64
2023/01/24 08:05:08;;;;;;;16.63;12.63;;;4.40;99.90;;;;;;5045309;28;20219;-64
2023/01/24 08:07:34;;;;;;;18.47;12.87;;;4.80;99.90;;;;;;5048274;28;20196;-63
2023/01/24 08:10:00;;;;;;;15.70;11.57;;;5.10;99.90;;;;;;5045076;28;21458;-64
2023/01/24 08:12:25;;;;;;;17.93;12.07;;;4.70;99.90;;;;;;5051955;28;20190;-61
2023/01/24 08:14:51;;;;;;;17.60;12.90;;;4.90;99.90;;;;;;5049461;28;20579;-61
2023/01/24 08:17:16;;;;;;;16.50;12.13;;;4.30;99.90;;;;;;5045975;28;20212;-63
2023/01/24 08:19:42;;;;;;;16.57;13.07;;;4.50;99.90;;;;;;5048533;28;20293;-62
2023/01/24 08:22:08;;;;;;;16.70;12.87;;;4.90;99.90;;;;;;5045473;28;20195;-62
2023/01/24 08:24:34;;;;;;;17.40;12.73;;;5.10;99.90;;;;;;5042760;28;20530;-61
2023/01/24 08:27:00;;;;;;;18.10;12.80;;;4.90;99.90;;;;;;5044088;28;20283;-62
2023/01/24 08:29:26;;;;;;;16.20;11.90;;;4.80;99.90;;;;;;5050048;28;20195;-62
2023/01/24 08:31:52;;;;;;;15.52;11.80;;;5.00;99.90;;;;;;5050650;28;20194;-62
2023/01/24 08:34:18;;;;;;;17.83;13.50;;;5.10;99.90;;;;;;5047648;28;20191;-62
2023/01/24 08:36:44;;;;;;;15.97;11.40;;;4.80;99.90;;;;;;5049368;28;20306;-63
2023/01/24 08:39:09;;;;;;;15.70;11.63;;;4.90;99.90;;;;;;5048705;28;20432;-63
2023/01/24 08:41:35;;;;;;;19.57;13.83;;;5.00;99.90;;;;;;5043601;28;20667;-64
2023/01/24 08:44:02;;;;;;;14.95;11.45;;;5.10;99.90;;;;;;5044989;28;20592;-63
2023/01/24 08:46:28;;;;;;;16.02;11.90;;;4.50;99.90;;;;;;5048211;28;20211;-63
2023/01/24 08:48:54;;;;;;;17.88;11.73;;;4.90;99.90;;;;;;5046196;28;20558;-64
2023/01/24 08:51:19;;;;;;;18.43;12.83;;;4.80;99.90;;;;;;5048562;28;20193;-63
2023/01/24 08:53:45;;;;;;;15.20;11.83;;;5.10;99.90;;;;;;5043627;28;20222;-62
2023/01/24 08:56:12;;;;;;;18.77;12.63;;;5.00;99.90;;;;;;5044250;28;20582;-62
2023/01/24 08:58:37;;;;;;;16.58;12.73;;;4.90;99.90;;;;;;5048372;28;20249;-62
2023/01/24 09:01:09;;;;;;;19.30;13.43;;;4.60;99.90;;;;;;5047299;28;20202;-62
2023/01/24 09:03:37;;;;;;;16.67;13.15;;;5.00;99.90;;;;;;5046092;28;20200;-62
2023/01/24 09:06:03;;;;;;;17.42;13.45;;;5.20;99.90;;;;;;5046583;28;20205;-62
2023/01/24 09:08:29;;;;;;;19.02;12.57;;;5.20;99.90;;;;;;5044264;28;20282;-62
2023/01/24 09:11:00;;;;;;;14.73;12.13;;;5.70;99.90;;;;;;5044162;28;20270;-63
2023/01/24 09:13:26;;;;;;;18.30;12.85;;;5.20;99.90;;;;;;5044017;28;20446;-62
2023/01/24 09:15:51;;;;;;;16.00;10.93;;;5.30;99.90;;;;;;5047536;28;20201;-62
2023/01/24 09:18:17;;;;;;;16.53;12.40;;;5.30;99.90;;;;;;5046059;28;20500;-62
2023/01/24 09:20:43;;;;;;;16.90;12.13;;;5.10;99.90;;;;;;5046646;28;20186;-62
2023/01/24 09:23:11;;;;;;;15.25;12.38;;;4.60;99.90;;;;;;5048053;28;20264;-62
2023/01/24 09:25:37;;;;;;;18.45;12.40;;;5.00;99.90;;;;;;5044178;28;20202;-62
2023/01/24 09:28:03;;;;;;;16.98;12.93;;;5.70;99.90;;;;;;5047649;28;20322;-62
2023/01/24 09:30:29;;;;;;;15.40;11.90;;;5.30;99.90;;;;;;5046813;28;20283;-62
2023/01/24 09:32:55;;;;;;;16.07;12.43;;;5.20;99.90;;;;;;5045398;28;20435;-63
2023/01/24 09:35:20;;;;;;;19.20;13.03;;;4.90;99.90;;;;;;5043106;28;20463;-63
2023/01/24 09:37:46;;;;;;;18.10;13.17;;;4.70;99.90;;;;;;5045100;28;20252;-62
2023/01/24 09:40:23;;;;;;;16.53;11.80;;;5.50;99.90;;;;;;5043175;28;21097;-62
2023/01/24 09:43:03;;;;;;;17.00;11.88;;;5.30;99.90;;;;;;5039240;28;20203;-62
2023/01/24 09:45:34;;;;;;;15.25;11.63;;;5.30;99.90;;;;;;5048494;28;20213;-62
2023/01/24 09:48:02;;;;;;;15.50;12.20;;;5.30;99.90;;;;;;5048129;28;20208;-62
2023/01/24 09:50:46;;;;;;;16.10;12.07;;;5.00;99.90;;;;;;5046538;28;20565;-62
2023/01/24 09:53:21;;;;;;;15.00;10.93;;;5.30;99.90;;;;;;5040811;28;20204;-62
2023/01/24 09:55:47;;;;;;;15.85;11.60;;;5.40;99.90;;;;;;5045007;28;20639;-62
2023/01/24 09:58:39;;;;;;;17.80;12.68;;;5.40;99.90;;;;;;5048201;28;20192;-62
2023/01/24 10:01:11;;;;;;;14.63;11.48;;;5.20;99.90;;;;;;5046272;28;20198;-63
2023/01/24 10:03:37;;;;;;;14.70;10.95;;;5.10;99.90;;;;;;5047049;28;20236;-62
2023/01/24 10:06:29;;;;;;;16.25;11.05;;;5.30;99.90;;;;;;5046342;28;20317;-62
2023/01/24 10:09:24;;;;;;;16.65;11.27;;;5.70;99.90;;;;;;5036946;28;20200;-62
2023/01/24 10:12:25;;;;;;;14.82;11.18;;;5.20;99.90;;;;;;5045513;28;20560;-63
2023/01/24 10:15:17;;;;;;;12.05;9.88;;;5.50;99.90;;;;;;5044623;28;20415;-62
2023/01/24 10:18:18;;;;;;;15.65;11.38;;;5.20;99.90;;;;;;5049318;28;20217;-63
2023/01/24 10:21:14;;;;;;;15.75;10.38;;;5.00;99.90;;;;;;5040228;28;20216;-62
2023/01/24 10:23:43;;;;;;;15.52;10.35;;;5.20;99.90;;;;;;5045257;28;20188;-62
2023/01/24 10:26:30;;;;;;;14.40;10.88;;;5.50;99.90;;;;;;5045540;28;20205;-62
2023/01/24 10:29:05;;;;;;;13.57;9.45;;;5.30;99.90;;;;;;5045796;28;20193;-62
2023/01/24 10:31:37;;;;;;;12.65;9.95;;;5.30;99.90;;;;;;5045707;28;20267;-63
2023/01/24 10:34:43;;;;;;;14.95;10.43;;;5.40;99.90;;;;;;5047062;28;20321;-63
2023/01/24 10:37:22;;;;;;;12.43;9.75;;;5.50;99.90;;;;;;5046487;28;20239;-63
2023/01/24 10:39:49;;;;;;;11.80;9.57;;;5.30;99.90;;;;;;5043838;28;20665;-63
2023/01/24 10:42:19;;;;;;;14.23;10.30;;;5.20;99.90;;;;;;5045936;28;20569;-63
2023/01/24 10:44:47;;;;;;;12.30;8.88;;;5.40;99.90;;;;;;5040352;28;20177;-62
2023/01/24 10:47:36;;;;;;;14.25;10.40;;;5.50;99.90;;;;;;5045425;28;20282;-63
2023/01/24 10:50:11;;;;;;;13.93;10.15;;;5.40;99.90;;;;;;5056876;28;20199;-62
2023/01/24 10:52:37;;;;;;;13.73;11.32;;;5.50;99.90;;;;;;5045821;28;20223;-62
2023/01/24 10:55:21;;;;;;;13.70;10.13;;;5.80;99.90;;;;;;5043708;28;20233;-62
2023/01/24 10:57:53;;;;;;;13.57;9.20;;;5.60;99.90;;;;;;5041420;28;20209;-63
2023/01/24 11:00:29;;;;;;;11.68;9.45;;;5.50;99.90;;;;;;5042785;28;20185;-63
2023/01/24 11:02:57;;;;;;;13.27;10.10;;;5.50;99.90;;;;;;5045991;28;20498;-62
2023/01/24 11:05:25;;;;;;;12.77;9.52;;;5.60;99.90;;;;;;5044129;28;20235;-63
2023/01/24 11:07:58;;;;;;;11.63;8.70;;;5.50;99.90;;;;;;5046710;28;20191;-63
2023/01/24 11:10:28;;;;;;;18.20;13.05;;;5.80;99.90;;;;;;5044521;28;20190;-62
2023/01/24 11:13:01;;;;;;;11.95;9.07;;;5.50;99.90;;;;;;5046814;28;20654;-63
2023/01/24 11:15:32;;;;;;;13.15;9.70;;;5.80;99.90;;;;;;5045738;28;20203;-63
2023/01/24 11:18:19;;;;;;;14.07;10.25;;;5.10;99.90;;;;;;5042932;28;20213;-63
2023/01/24 11:20:46;;;;;;;12.05;9.10;;;5.90;99.90;;;;;;5043321;28;20261;-62
2023/01/24 11:23:15;;;;;;;10.73;8.02;;;5.60;99.90;;;;;;5048643;28;20177;-62
2023/01/24 11:25:55;;;;;;;11.63;10.00;;;6.20;99.90;;;;;;5050255;28;20683;-63
2023/01/24 11:28:26;;;;;;;10.90;9.05;;;5.60;99.90;;;;;;5051311;28;20220;-63
2023/01/24 11:30:54;;;;;;;12.05;9.70;;;6.10;99.90;;;;;;5050658;28;20698;-63
2023/01/24 11:33:37;;;;;;;11.88;8.93;;;6.30;99.90;;;;;;5048146;28;20188;-63
2023/01/24 11:36:11;;;;;;;11.63;9.75;;;6.00;99.90;;;;;;5051166;28;20542;-63
2023/01/24 11:38:43;;;;;;;13.25;9.48;;;6.20;99.90;;;;;;5054280;28;20238;-62
2023/01/24 11:41:34;;;;;;;11.80;9.48;;;6.30;99.90;;;;;;5048718;28;20180;-63
2023/01/24 11:44:18;;;;;;;10.80;8.65;;;6.20;99.90;;;;;;5040764;28;20569;-63
2023/01/24 11:46:43;;;;;;;10.63;8.70;;;6.20;99.90;;;;;;5053601;28;20216;-62
2023/01/24 11:49:25;;;;;;;12.97;9.80;;;6.20;99.90;;;;;;5045684;28;20187;-63
2023/01/24 11:52:24;;;;;;;13.18;9.95;;;6.10;99.90;;;;;;5042847;28;20620;-63
2023/01/24 11:55:00;;;;;;;13.95;10.55;;;6.10;99.90;;;;;;5056129;28;21542;-64
2023/01/24 11:57:55;;;;;;;15.35;10.25;;;5.50;99.90;;;;;;5043158;28;20356;-61
2023/01/24 12:00:32;;;;;;;15.15;11.35;;;5.90;99.90;;;;;;5042721;28;20739;-64
2023/01/24 12:03:35;;;;;;;21.83;15.70;;;6.10;99.90;;;;;;5038472;28;20288;-64
2023/01/24 12:06:09;;;;;;;12.25;9.77;;;6.00;99.90;;;;;;5033312;28;20209;-63
2023/01/24 12:09:01;;;;;;;13.50;8.93;;;5.60;99.90;;;;;;5038974;28;20181;-61
2023/01/24 12:11:41;;;;;;;12.68;9.63;;;6.20;99.90;;;;;;5036766;28;20185;-61
2023/01/24 12:14:28;;;;;;;14.52;8.50;;;5.60;99.90;;;;;;5040332;28;20186;-62
2023/01/24 12:17:12;;;;;;;11.35;9.20;;;6.10;99.90;;;;;;5042927;28;20736;-63
2023/01/24 12:20:13;;;;;;;13.57;8.80;;;6.30;99.90;;;;;;5038711;28;20186;-61
2023/01/24 12:22:39;;;;;;;11.50;8.88;;;6.20;99.90;;;;;;5041624;28;20279;-63
2023/01/24 12:25:30;;;;;;;13.52;9.20;;;6.20;99.90;;;;;;5035526;28;20275;-63
2023/01/24 12:28:01;;;;;;;9.48;8.48;;;6.00;99.90;;;;;;5040270;28;20541;-63
2023/01/24 12:30:39;;;;;;;13.60;9.05;;;6.00;99.90;;;;;;5036528;28;20325;-63
2023/01/24 12:33:31;;;;;;;10.40;8.93;;;5.80;99.90;;;;;;5036980;28;20187;-63
2023/01/24 12:36:18;;;;;;;11.50;8.52;;;6.10;99.90;;;;;;5042191;28;20659;-63
2023/01/24 12:38:51;;;;;;;16.15;9.82;;;5.70;99.90;;;;;;5039464;28;20208;-63
2023/01/24 12:41:33;;;;;;;9.73;8.65;;;5.80;99.90;;;;;;5040387;28;20553;-63
2023/01/24 12:44:13;;;;;;;13.48;10.00;;;6.10;99.90;;;;;;5045020;28;20196;-63
2023/01/24 12:46:45;;;;;;;10.63;9.52;;;6.00;99.90;;;;;;5046580;28;20313;-63
2023/01/24 12:49:45;;;;;;;15.30;10.23;;;6.10;99.90;;;;;;5046517;28;20535;-63
2023/01/24 12:52:35;;;;;;;14.07;9.82;;;6.00;99.90;;;;;;5045675;28;20614;-63
2023/01/24 12:55:10;;;;;;;12.27;9.55;;;6.20;99.90;;;;;;5058536;28;20602;-63
2023/01/24 12:57:41;;;;;;;14.15;9.35;;;6.30;99.90;;;;;;5049780;28;20241;-63
2023/01/24 13:00:22;;;;;;;10.38;9.13;;;6.00;99.90;;;;;;5043981;28;20173;-62
2023/01/24 13:03:13;;;;;;;11.05;8.75;;;6.60;99.90;;;;;;5048601;28;20190;-63
2023/01/24 13:05:39;;;;;;;13.23;9.05;;;5.90;99.90;;;;;;5047553;28;20229;-63
2023/01/24 13:08:13;;;;;;;12.20;8.80;;;6.20;99.90;;;;;;5054252;28;20641;-63
2023/01/24 13:11:09;;;;;;;11.13;9.23;;;6.10;99.90;;;;;;5049069;28;20211;-63
2023/01/24 13:13:43;;;;;;;27.90;17.27;;;5.90;99.90;;;;;;5049971;28;20661;-63
2023/01/24 13:16:38;;;;;;;12.50;9.02;;;6.10;99.90;;;;;;5054011;28;20247;-63
2023/01/24 13:19:24;;;;;;;13.00;9.27;;;6.10;99.90;;;;;;5028542;28;20177;-63
2023/01/24 13:22:14;;;;;;;9.45;8.13;;;6.10;99.90;;;;;;5052722;28;20274;-63
2023/01/24 13:25:01;;;;;;;13.73;9.73;;;5.90;99.90;;;;;;5046786;28;20184;-63
2023/01/24 13:27:53;;;;;;;14.75;9.85;;;5.90;99.90;;;;;;5048350;28;20184;-63
2023/01/24 13:30:54;;;;;;;11.63;9.00;;;5.90;99.90;;;;;;5046225;28;20189;-63
2023/01/24 13:33:28;;;;;;;11.73;9.27;;;6.20;99.90;;;;;;5043604;28;20225;-65
2023/01/24 13:35:54;;;;;;;8.70;7.63;;;6.00;99.90;;;;;;5041375;28;20208;-63
2023/01/24 13:38:25;;;;;;;10.50;8.27;;;5.90;99.90;;;;;;5050107;28;20211;-62